Dumfries, United Kingdom
Current Conditions -  °F | °C
As of 11:50 AM on Friday 28 Nov 2014 (Local Time) from EGNC Reporting Station
Rain Showers Rain Showers  
Wind Chill: 45°   Ceiling: 800
Heat Index: 48°   Visibility: 3mi
Dew Point: 48°   Wind: 7mph
Humidity: 100%   Direction: 80°E
Pressure: 29.74"   Gusts: NA
Location:  55.07°N, 3.61°W
Report Text: EGNC 281150Z 08006KT 040V130 5000 VCSH SCT005 BKN008 09/09 Q1007
Loading
Personal Weather Stations






























Interactive Weather Map New forecast layout! Learn more

10-Day Weather Forecast

Advertisements
Track Severe Weather on mobile